Date,TemperatureHighF,TemperatureAvgF,TemperatureLowF,DewpointHighF,DewpointAvgF,DewpointLowF,HumidityHigh,HumidityAvg,HumidityLow,PressureMaxIn,PressureMinIn,WindSpeedMaxMPH,WindSpeedAvgMPH,GustSpeedMaxMPH,PrecipitationSumIn
2013-1-1,27.0,20.1,12.7,13.5,6.6,0.7,69,56,43,31.03,30.14,8,1,8,0.00
2013-1-2,32.9,21.6,9.1,15.7,6.8,-2.7,70,53,41,30.23,30.08,13,5,13,0.04
2013-1-3,42.8,30.6,21.9,25.0,17.7,8.4,77,59,43,30.35,30.14,9,3,9,0.08
2013-1-4,39.4,28.0,17.1,19.3,13.8,6.1,75,56,40,30.35,30.23,15,4,15,0.08
2013-1-5,41.7,34.0,27.7,31.1,24.4,15.5,80,68,57,30.23,30.03,20,7,20,0.04
2013-1-6,37.4,31.9,25.2,28.7,16.9,12.5,72,54,40,30.32,30.03,12,4,12,0.04
2013-1-7,46.0,34.9,24.1,22.5,17.8,13.3,71,51,37,30.32,30.06,16,6,16,0.00
2013-1-8,50.2,41.7,33.1,23.9,19.7,16.6,57,42,30,30.11,29.97,13,6,13,0.00
2013-1-9,52.0,43.4,36.3,34.3,27.0,21.3,72,53,37,31.21,30.08,8,3,8,0.00
2013-1-10,44.6,40.6,37.6,43.8,32.6,20.4,97,75,45,30.56,29.76,12,4,12,0.28
2013-1-11,59.9,53.2,44.4,54.2,44.1,39.3,97,74,48,30.44,29.64,21,10,21,0.04
2013-1-12,56.8,42.6,26.6,41.1,25.9,16.1,77,53,37,30.82,29.70,17,6,17,0.00
2013-1-13,27.1,22.9,15.8,19.9,8.4,3.4,76,54,40,30.82,29.97,12,4,12,0.00
2013-1-14,27.1,18.7,10.9,12.1,3.4,0.1,70,52,34,31.33,30.32,8,1,8,0.00
2013-1-15,29.1,20.9,11.1,12.9,6.1,1.0,73,53,36,31.09,30.14,7,1,7,0.00
2013-1-16,41.0,29.4,16.3,20.1,12.6,5.7,70,51,32,30.14,29.94,16,6,16,0.04
2013-1-17,38.5,33.2,28.0,26.4,16.8,10.4,78,52,33,31.15,30.08,13,3,13,0.04
2013-1-18,51.6,39.5,27.3,23.8,19.1,13.3,62,45,30,30.44,30.03,22,9,22,0.00
2013-1-19,57.7,47.2,38.5,30.1,25.2,13.2,58,43,32,30.11,29.88,22,8,22,0.00
2013-1-20,41.0,26.6,19.9,14.2,4.2,0.1,50,38,29,31.21,30.11,14,5,14,0.00
2013-1-21,21.4,17.0,12.2,4.7,-5.6,-13.9,53,37,22,31.12,30.32,15,5,15,0.00
2013-1-22,21.4,15.0,9.1,2.2,-6.0,-13.6,50,38,34,31.27,30.32,13,2,13,0.00
2013-1-23,41.0,25.5,12.6,14.1,6.8,-1.0,65,46,32,31.21,30.11,16,4,16,0.00
2013-1-24,24.6,19.1,11.8,2.0,-2.4,-6.1,48,38,33,31.38,30.20,15,7,15,0.00
2013-1-25,43.3,33.0,24.6,15.6,9.4,2.6,50,38,28,31.03,30.06,13,5,13,0.08
2013-1-26,35.6,28.1,18.3,15.6,6.5,0.2,52,40,29,31.18,30.23,12,5,12,0.00
2013-1-27,49.3,36.2,28.0,48.0,29.1,12.2,96,77,49,30.65,29.82,14,5,14,0.04
2013-1-28,66.9,59.1,49.3,60.3,55.0,48.2,97,87,67,30.59,29.73,18,6,18,0.00
2013-1-29,63.5,58.2,42.1,58.1,53.4,37.7,92,84,72,30.29,29.41,20,6,20,1.10
2013-1-30,41.9,33.4,26.1,37.7,24.2,8.1,88,70,46,30.20,29.32,12,2,12,0.00
2013-1-31,29.5,21.6,8.4,12.4,1.7,-12.6,55,42,33,30.65,29.88,0,0,0,0.00
2013-2-1,27.0,17.4,5.7,12.9,-3.7,-15.0,60,39,32,30.47,30.14,17,4,17,0.00
2013-2-2,39.2,31.9,25.9,19.1,12.2,7.4,72,44,32,30.91,30.03,14,5,14,0.00
2013-2-3,37.4,30.1,26.6,24.9,15.7,7.3,80,57,33,30.82,29.94,13,5,13,0.00
2013-2-4,46.4,33.7,27.0,23.8,18.0,11.8,66,53,38,30.76,29.76,15,4,15,0.00
2013-2-5,50.2,36.7,27.1,26.9,22.4,15.9,74,57,38,30.91,29.85,13,5,13,0.00
2013-2-6,51.6,39.7,27.1,34.3,24.2,20.8,82,56,30,30.17,29.97,14,4,14,0.00
2013-2-7,45.1,40.2,35.1,39.4,31.9,22.5,87,74,41,30.79,29.85,12,4,12,0.39
2013-2-8,36.7,33.7,32.0,31.0,25.4,21.7,85,72,61,31.15,30.08,17,4,17,0.00
2013-2-9,39.7,34.9,29.7,28.9,22.7,20.6,73,61,50,30.32,29.94,14,8,14,0.08
2013-2-10,59.2,46.5,37.4,49.6,34.1,19.5,95,67,26,29.94,29.41,24,11,24,0.16
2013-2-11,48.7,40.4,31.6,21.1,18.2,14.4,57,41,31,30.91,29.70,20,8,20,0.00
2013-2-12,41.9,33.9,25.3,27.2,20.7,17.2,75,59,40,30.91,29.91,7,1,7,0.00
2013-2-13,51.8,40.1,30.2,30.9,24.1,21.6,77,55,36,29.91,29.76,12,4,12,0.00
2013-2-14,53.8,44.1,36.0,30.0,24.0,16.6,68,47,31,30.06,29.73,13,6,13,0.00
2013-2-15,42.4,33.1,25.0,19.9,9.2,0.0,54,38,21,31.09,30.06,13,6,13,0.00
2013-2-16,38.5,28.3,18.5,12.8,7.4,4.6,57,42,29,31.06,30.11,10,3,10,0.00
2013-2-17,44.2,34.0,23.2,24.0,13.9,7.7,62,45,28,30.91,29.79,14,6,14,0.00
2013-2-18,57.0,44.4,29.5,45.2,29.5,12.3,75,56,45,30.32,29.44,24,9,24,0.43
2013-2-19,31.3,25.3,20.5,12.8,6.1,1.2,53,44,33,30.29,29.88,14,2,14,0.04
2013-2-20,24.6,19.6,11.5,7.3,1.9,-3.2,55,46,37,31.21,30.26,9,3,9,0.00
2013-2-21,29.5,23.0,18.7,28.7,17.3,6.7,97,79,55,31.09,29.79,16,6,16,0.00
2013-2-22,33.6,30.2,23.2,32.3,24.9,11.5,97,82,53,30.03,29.76,13,6,13,0.00
2013-2-23,36.1,25.7,14.9,21.9,11.4,6.2,73,55,40,30.03,29.94,10,4,10,0.00
2013-2-24,41.2,27.9,12.7,19.2,12.4,2.5,69,53,34,30.88,30.00,10,3,10,0.00
2013-2-25,45.3,35.3,25.3,27.6,21.4,16.3,78,58,38,30.85,29.73,14,4,14,0.00
2013-2-26,36.5,33.5,32.4,34.3,31.9,24.5,97,94,62,30.59,29.44,15,4,15,0.04
2013-2-27,42.1,34.9,31.5,37.7,29.2,23.4,95,81,58,29.88,29.67,12,2,12,0.08
2013-2-28,40.6,34.1,30.4,29.7,24.3,20.8,80,68,48,30.11,29.88,10,3,10,0.00
2013-3-1,39.6,31.7,26.6,28.7,20.3,14.9,82,64,41,30.97,30.06,10,3,10,0.00
2013-3-2,39.9,29.7,19.9,22.4,13.5,7.1,76,53,30,31.06,30.20,12,4,12,0.04
2013-3-3,36.9,27.7,15.8,19.6,13.0,5.9,72,55,40,30.20,29.97,9,3,9,0.00
2013-3-4,45.3,37.3,32.0,26.4,23.3,18.1,75,58,38,30.65,29.73,15,7,15,0.08
2013-3-5,41.9,34.9,30.9,31.1,23.1,14.8,84,63,38,30.94,29.85,18,6,18,0.00
2013-3-6,41.2,31.8,23.5,18.1,15.1,12.0,63,50,37,31.15,30.14,16,4,16,0.00
2013-3-7,38.1,29.9,19.9,25.8,17.4,12.6,79,61,41,31.15,30.26,9,4,9,0.00
2013-3-8,48.0,39.0,29.3,29.4,25.4,22.9,84,60,38,31.12,30.11,14,6,14,0.00
2013-3-9,55.6,46.3,38.5,41.9,33.5,25.3,89,63,39,30.11,29.70,16,5,16,0.39
2013-3-10,53.1,49.3,41.0,51.4,46.5,36.2,95,90,57,30.50,29.55,14,4,14,0.71
2013-3-11,40.6,35.2,31.3,36.2,27.2,18.4,84,73,58,29.94,29.67,15,7,15,0.00
2013-3-12,47.5,35.0,26.1,26.1,20.0,16.9,74,55,37,30.20,29.94,15,4,15,0.00
2013-3-13,43.5,33.2,24.8,17.7,12.4,8.0,59,43,28,31.24,30.20,12,2,12,0.00
2013-3-14,57.7,41.9,29.1,31.9,20.5,12.5,51,43,31,30.85,30.03,17,3,17,0.00
2013-3-15,69.1,50.9,34.3,43.7,33.0,22.6,70,51,29,30.79,29.61,14,2,14,0.00
2013-3-16,54.9,42.9,37.8,42.2,30.6,24.5,75,62,51,30.88,29.61,14,4,14,0.00
2013-3-17,39.2,35.6,33.1,32.5,24.9,18.6,93,66,47,30.94,29.79,12,6,12,0.12
2013-3-18,50.2,39.4,32.2,40.8,28.3,11.6,94,70,29,30.85,29.67,20,6,20,0.04
2013-3-19,49.3,37.4,28.0,17.0,9.5,4.3,47,33,16,30.17,29.97,12,6,12,0.00
2013-3-20,36.9,30.4,22.6,18.6,6.1,-2.5,53,37,22,31.12,30.11,15,6,15,0.00
2013-3-21,36.9,28.1,19.4,11.1,5.7,2.3,54,39,24,30.94,29.94,9,3,9,0.00
2013-3-22,40.1,33.4,25.7,17.7,14.1,9.9,60,46,32,30.79,29.97,10,2,10,0.00
2013-3-23,51.1,42.8,35.4,26.9,18.7,13.3,62,39,24,30.82,29.85,15,4,15,0.00
2013-3-24,41.2,32.6,30.9,30.0,28.3,24.4,89,84,63,30.53,29.67,13,1,13,0.00
2013-3-25,42.4,34.4,30.0,32.1,24.6,17.3,89,70,40,30.76,29.85,12,2,12,0.00
2013-3-26,46.9,36.7,30.4,25.2,20.4,16.8,68,53,36,30.32,30.14,10,3,10,0.59
2013-3-27,47.7,37.5,25.7,28.3,19.1,14.9,75,50,29,30.35,30.26,10,3,10,0.04
2013-3-28,52.3,42.8,34.2,28.6,23.8,18.1,61,48,36,31.06,30.20,12,5,12,0.00
2013-3-29,60.4,47.8,35.8,35.7,30.8,27.0,74,54,33,31.03,30.14,10,4,10,0.00
2013-3-30,56.3,48.7,40.5,44.4,38.2,31.5,86,68,40,30.17,29.88,20,5,20,0.00
2013-3-31,68.7,55.5,45.1,52.0,35.9,18.3,89,54,23,30.70,29.82,13,5,13,0.00
2013-4-1,48.6,41.8,33.6,22.6,13.8,3.7,47,33,19,30.97,29.94,14,6,14,0.00
2013-4-2,49.8,39.0,27.9,19.1,10.3,-0.7,56,33,16,31.03,30.20,12,3,12,0.04
2013-4-3,51.8,42.0,30.4,20.6,13.2,6.5,56,33,16,31.15,30.20,14,4,14,0.04
2013-4-4,60.1,48.1,34.9,26.5,18.5,11.5,65,34,16,30.82,30.00,10,2,10,0.00
2013-4-5,63.3,54.0,42.3,30.8,22.9,13.5,59,32,16,31.00,29.94,14,5,14,0.00
2013-4-6,71.8,63.4,55.2,41.1,30.9,25.0,39,30,21,29.97,29.61,25,11,25,0.00
2013-4-7,76.5,64.5,49.1,45.9,34.5,26.7,62,35,18,30.56,29.70,17,5,17,0.00
2013-4-8,75.9,67.1,57.4,57.6,52.1,39.9,88,60,42,30.56,29.61,18,6,18,0.39
2013-4-9,78.3,72.4,67.3,54.1,51.5,47.8,59,48,35,29.82,29.73,20,9,20,0.00
2013-4-10,71.2,56.9,49.6,57.5,50.2,42.9,95,80,56,30.68,29.61,17,6,17,1.46
2013-4-11,53.1,45.9,39.4,51.7,36.3,24.5,96,71,48,29.70,29.61,14,7,14,0.00
2013-4-12,46.6,41.6,38.3,28.9,26.3,23.8,62,54,47,29.94,29.67,13,6,13,0.00
2013-4-13,59.9,48.7,34.9,35.0,28.5,23.1,71,48,29,30.03,29.82,12,5,12,0.00
2013-4-14,77.5,64.3,49.1,50.7,37.2,29.5,68,41,18,29.85,29.50,23,10,23,0.28
2013-4-15,69.3,57.2,44.6,53.2,44.4,31.1,80,63,49,30.79,29.58,17,3,17,0.67
2013-4-16,51.8,47.5,43.2,40.8,35.1,30.2,83,64,45,30.94,29.91,13,4,13,0.94
2013-4-17,56.7,51.1,46.2,55.6,46.1,33.7,97,84,56,30.91,29.61,17,6,17,0.63
2013-4-18,63.1,53.1,39.7,62.3,48.8,25.7,97,86,57,29.76,29.44,19,7,19,1.89
2013-4-19,51.4,43.0,36.9,25.7,21.3,16.6,58,43,28,30.03,29.73,18,8,18,0.00
2013-4-20,54.9,44.5,31.6,28.2,19.5,6.7,68,40,16,31.03,30.03,9,3,9,0.00
2013-4-21,63.0,52.8,41.7,33.2,29.4,24.6,59,41,31,30.32,30.17,14,7,14,0.00
2013-4-22,71.2,61.6,50.4,34.8,28.7,22.4,43,30,17,30.76,29.91,14,6,14,0.04
2013-4-23,61.2,46.5,39.2,44.5,36.9,34.3,86,71,37,30.82,29.88,17,5,17,0.35
2013-4-24,55.4,45.7,36.3,35.9,27.6,19.9,86,54,27,30.82,30.00,12,5,12,0.04
2013-4-25,67.3,53.9,40.1,34.3,23.8,15.2,64,34,15,30.29,30.14,12,5,12,0.00
2013-4-26,63.0,56.7,51.1,44.8,35.5,22.4,66,45,30,30.26,30.17,20,7,20,0.00
2013-4-27,54.1,51.8,48.4,50.4,46.3,38.8,91,82,57,30.97,29.94,7,2,7,0.16
2013-4-28,66.4,57.2,51.8,55.8,48.5,43.0,94,75,45,30.70,29.82,9,3,9,0.00
2013-4-29,81.0,67.0,48.9,57.1,48.1,44.2,92,56,29,29.85,29.64,18,6,18,0.00
2013-4-30,84.6,76.4,67.6,55.3,45.8,36.0,63,37,19,29.88,29.70,18,6,18,0.00
2013-5-1,86.2,76.5,65.8,46.8,41.5,37.0,49,30,19,30.85,29.88,14,4,14,0.00
2013-5-2,68.5,52.7,40.3,40.8,35.3,32.7,82,53,36,31.06,30.06,14,2,14,0.43
2013-5-3,42.4,39.7,37.6,40.4,37.1,34.6,93,90,82,30.94,29.76,15,4,15,0.67
2013-5-4,50.0,45.4,39.4,44.1,41.0,37.8,94,85,73,30.74,29.76,9,2,9,0.00
2013-5-5,68.4,57.2,46.6,54.8,48.1,42.5,92,73,48,30.85,29.88,15,2,15,0.00
2013-5-6,75.7,64.8,55.0,54.7,46.9,36.5,85,56,25,30.82,29.94,14,3,14,0.00
2013-5-7,79.3,69.4,57.9,50.6,39.2,22.5,69,37,13,30.91,29.94,9,1,9,0.00
2013-5-8,82.2,68.4,55.6,53.6,46.5,36.7,71,49,20,30.76,29.94,17,1,17,0.00
2013-5-9,71.4,64.4,60.8,61.7,57.8,52.6,90,79,58,30.70,29.79,12,3,12,1.10
2013-5-10,61.2,58.8,53.6,56.8,51.1,45.8,90,76,58,30.76,29.82,10,2,10,0.00
2013-5-11,64.9,56.3,47.8,53.8,33.7,15.2,88,50,18,30.97,29.97,15,4,15,0.00
2013-5-12,62.4,52.1,40.1,29.2,22.9,10.3,58,35,13,31.03,30.11,12,2,12,0.00
2013-5-13,72.1,59.8,44.1,36.3,30.5,20.0,62,36,14,30.17,29.94,12,4,12,0.00
2013-5-14,87.6,74.7,59.4,49.4,44.1,34.5,59,36,19,29.94,29.73,15,6,15,0.00
2013-5-15,88.3,78.9,70.2,62.9,49.7,41.9,75,37,28,30.62,29.76,15,4,15,0.55
2013-5-16,83.1,74.2,67.3,66.8,58.5,51.3,87,61,38,29.94,29.82,13,3,13,0.56
2013-5-17,77.7,70.6,63.3,60.5,55.3,46.6,72,59,45,30.74,29.88,7,0,7,0.00
2013-5-18,80.6,73.3,64.8,65.7,58.7,53.9,90,63,41,29.97,29.85,12,2,12,0.00
2013-5-19,88.3,79.1,71.2,67.4,60.9,53.6,74,55,35,29.88,29.61,15,5,15,0.00
2013-5-20,80.8,72.2,64.8,62.4,56.7,46.7,81,60,31,30.50,29.64,17,6,17,0.20
2013-5-25,66.4,62.1,57.2,51.7,49.5,47.5,71,64,54,30.91,30.08,9,4,9,0.39
2013-5-26,76.1,65.7,54.5,63.5,52.7,45.1,84,64,46,30.14,29.94,13,3,13,0.00
2013-5-27,72.5,68.7,65.8,63.8,62.2,59.3,89,80,66,30.76,29.64,14,1,14,0.24
2013-5-28,79.7,73.8,64.9,68.6,62.6,56.1,90,69,56,30.74,29.70,18,4,18,0.28
2013-5-29,85.5,75.6,63.9,63.2,58.1,52.0,86,58,32,30.74,29.76,18,4,18,0.04
2013-5-30,83.8,75.5,67.1,63.0,58.6,53.4,75,57,38,29.85,29.73,27,5,27,0.51
2013-5-31,70.0,67.8,65.5,67.1,64.0,58.3,91,88,73,30.53,29.67,16,6,16,0.55
2013-6-1,79.2,69.8,63.5,65.6,57.2,46.2,91,68,33,29.88,29.67,14,5,14,0.00
2013-6-2,68.7,63.7,59.2,53.9,47.7,41.6,73,57,40,30.85,29.85,12,3,12,0.00
2013-6-3,70.9,63.6,54.5,48.9,42.5,37.2,72,47,34,30.88,29.97,12,2,12,0.00
2013-6-4,77.2,67.0,56.7,52.8,48.0,45.5,78,52,34,30.88,29.97,14,4,14,0.00
2013-6-5,79.5,70.4,59.9,59.8,55.4,51.2,87,61,40,30.82,29.85,9,1,9,0.00
2013-6-6,77.5,70.4,65.3,61.9,51.1,41.2,86,54,28,30.76,29.85,14,3,14,0.00
2013-6-7,76.8,67.7,59.9,55.9,48.5,41.7,75,52,32,30.79,29.88,13,3,13,0.00
2013-6-8,79.9,69.9,57.6,56.5,48.1,41.8,81,50,27,29.94,29.88,13,4,13,0.00
2013-6-9,73.4,70.0,68.7,58.9,51.4,45.8,68,52,43,29.91,29.85,15,7,15,0.00
2013-6-10,79.0,73.3,66.9,61.6,56.1,52.3,82,56,41,30.68,29.73,12,2,12,0.00
2013-6-11,90.3,77.8,64.4,67.3,60.8,55.4,86,59,32,30.74,29.79,12,3,12,0.00
2013-6-12,93.7,87.9,78.8,66.6,62.6,56.2,66,44,30,29.85,29.67,20,8,20,0.00
2013-6-13,83.8,76.5,70.2,59.7,51.2,39.3,67,44,22,30.85,29.79,15,4,15,0.00
2013-6-14,81.0,72.9,65.5,62.7,56.3,48.2,79,58,33,30.82,29.88,16,2,16,0.00
2013-6-15,90.5,77.1,69.6,69.0,61.6,55.4,81,61,38,30.85,29.88,16,4,16,0.39
2013-6-16,83.5,76.2,68.5,69.0,64.9,60.9,87,69,50,30.74,29.91,9,2,9,0.08
2013-6-17,86.9,77.8,71.1,70.4,63.8,57.8,86,64,41,30.79,29.88,10,1,10,0.00
2013-6-18,87.6,77.0,66.9,67.2,56.4,43.9,84,53,23,30.79,29.91,12,3,12,0.00
2013-6-19,84.9,75.8,66.0,59.7,54.0,48.3,69,49,30,30.88,29.97,9,1,9,0.00
2013-6-20,90.0,80.3,69.6,66.9,59.1,53.4,76,51,30,30.88,30.00,15,5,15,0.00
2013-6-21,93.2,84.4,76.3,68.1,63.8,60.3,63,51,35,30.06,29.91,15,7,15,0.00
2013-6-22,93.7,82.7,75.7,69.8,65.1,56.1,72,56,32,30.03,29.91,20,7,20,0.00
2013-6-23,91.6,75.9,71.1,69.1,62.9,55.1,89,66,32,30.62,29.85,15,5,15,1.42
2013-6-24,91.6,81.3,70.5,68.3,64.8,61.5,80,60,38,30.03,29.85,17,7,17,0.00
2013-6-25,91.6,83.9,76.5,69.4,65.7,62.2,73,56,39,29.91,29.79,18,6,18,0.00
2013-6-26,90.9,81.7,72.7,72.7,68.0,59.5,72,64,48,30.59,29.70,28,4,28,0.04
2013-6-27,92.7,82.1,73.0,69.4,62.0,53.0,74,53,28,30.70,29.82,8,1,8,0.00
2013-6-28,87.8,79.8,71.8,65.3,53.3,38.4,76,44,18,30.70,29.73,15,3,15,0.00
2013-6-29,82.6,72.3,65.5,66.7,55.8,47.9,85,58,32,30.68,29.67,25,4,25,0.51
2013-6-30,77.5,72.3,65.3,62.0,56.0,50.8,88,60,40,30.76,29.79,14,4,14,0.00
2013-7-1,77.2,75.1,69.6,51.7,48.1,41.9,41,39,30,30.88,29.88,12,2,12,0.00
2013-7-2,81.0,72.5,63.9,53.9,46.3,37.8,57,41,23,30.94,30.00,14,4,14,0.00
2013-7-3,82.8,73.0,63.1,57.0,52.2,46.1,74,50,30,30.85,29.97,15,2,15,0.00
2013-7-4,87.1,76.4,65.3,60.5,54.0,49.3,74,48,28,30.08,29.97,12,3,12,0.00
2013-7-5,86.5,78.0,68.2,60.7,55.2,51.1,71,47,31,30.06,29.97,10,4,10,0.00
2013-7-6,88.7,78.5,68.4,65.5,58.6,50.3,81,53,31,30.03,29.91,15,4,15,0.00
2013-7-7,92.8,81.9,72.0,62.6,58.4,52.9,61,47,28,30.00,29.94,12,4,12,0.00
2013-7-8,92.1,82.9,76.1,67.7,63.3,60.1,71,53,35,30.88,29.97,12,4,12,0.00
2013-7-9,95.0,85.6,78.8,68.6,64.6,58.2,67,51,30,30.03,29.88,13,3,13,0.00
2013-7-10,89.4,81.6,71.6,72.4,60.4,50.4,76,51,30,30.82,29.85,16,4,16,0.00
2013-7-11,84.9,75.8,67.6,57.8,52.3,43.9,67,46,24,30.91,30.03,9,1,9,0.00
2013-7-12,83.7,75.0,66.6,60.7,50.7,39.3,80,47,21,30.11,30.03,13,2,13,0.00
2013-7-13,85.1,76.0,64.4,60.8,53.7,48.8,71,48,29,30.91,30.03,9,1,9,0.00
2013-7-14,87.3,79.0,68.2,64.9,59.1,52.5,81,53,31,31.00,30.06,12,2,12,0.00
2013-7-15,90.1,79.4,72.5,71.5,65.8,60.5,83,65,38,31.00,30.14,12,1,12,0.12
2013-7-16,91.0,82.9,75.0,74.3,67.6,62.3,88,63,40,30.44,30.20,10,3,10,0.00
2013-7-17,93.4,84.9,75.6,71.7,65.7,57.9,79,56,31,31.09,30.17,8,1,8,0.00
2013-7-18,95.7,91.5,83.3,66.8,60.8,56.1,57,37,27,30.14,30.00,12,5,12,0.00
2013-7-19,96.4,86.9,76.8,68.0,60.9,49.8,70,45,22,30.00,29.85,14,3,14,0.00
2013-7-20,90.1,82.9,76.8,66.9,61.4,54.4,69,50,32,30.79,29.82,10,3,10,0.00
2013-7-21,83.5,75.8,70.9,69.6,65.9,61.8,84,72,50,29.91,29.79,12,1,12,0.08
2013-7-22,90.1,79.4,69.1,72.1,66.8,60.7,91,69,39,30.65,29.76,11,2,11,0.00
2013-7-23,86.7,78.2,70.5,72.3,58.5,49.1,79,53,29,30.76,29.76,14,3,14,0.00
2013-7-24,79.9,72.4,65.8,57.5,50.5,45.0,73,48,31,30.91,29.94,10,2,10,0.00
2013-7-25,84.4,73.8,62.2,59.5,51.4,46.9,72,48,29,30.91,30.00,10,2,10,0.00
2013-7-26,81.7,75.1,70.0,65.2,57.2,49.9,63,54,45,30.82,29.91,15,3,15,0.00
2013-7-27,74.8,67.8,60.4,53.4,44.8,34.1,71,46,24,30.91,29.94,14,3,14,0.00
2013-7-28,79.0,69.7,56.5,47.5,41.3,34.8,67,39,22,30.82,29.97,12,2,12,0.00
2013-7-29,80.1,68.9,58.5,61.1,52.8,44.6,80,59,30,30.91,30.06,12,2,12,0.00
2013-7-30,80.4,73.1,66.6,68.0,64.9,60.3,88,76,61,30.88,29.97,12,2,12,0.24
2013-7-31,79.2,73.9,69.8,68.1,64.0,59.0,87,72,51,30.88,30.00,9,1,9,0.00
2013-8-1,86.4,76.3,66.4,66.6,57.3,42.0,87,57,23,30.88,29.94,7,1,7,0.00
2013-8-2,85.8,75.3,70.0,66.8,62.5,57.1,81,65,45,30.79,29.91,12,2,12,0.12
2013-8-3,83.5,75.1,69.6,66.6,57.5,47.1,88,58,30,30.91,29.94,12,3,12,0.00
2013-8-4,82.4,73.3,64.2,60.2,53.9,43.5,78,53,27,30.97,30.06,5,0,5,0.00
2013-8-5,80.6,75.4,70.2,65.6,60.7,53.6,72,60,51,30.08,29.82,12,3,12,0.00
2013-8-6,87.6,78.9,71.1,71.1,66.6,63.8,84,67,47,29.88,29.82,10,2,10,0.00
2013-8-7,88.2,78.1,73.0,72.4,69.2,63.5,88,75,53,30.74,29.79,9,1,9,0.16
2013-8-8,81.3,74.6,68.5,66.0,62.9,59.3,79,68,49,30.76,29.91,9,2,9,0.00
2013-8-9,83.3,77.5,71.4,64.6,60.7,55.1,78,58,39,30.85,29.97,7,0,7,0.00
2013-8-10,82.4,75.4,69.6,63.6,53.3,41.5,74,49,24,31.00,30.08,13,3,13,0.00
2013-8-11,85.1,75.1,63.9,61.2,54.4,47.5,75,51,30,30.14,30.03,10,2,10,0.00
2013-8-12,81.9,75.1,69.4,68.7,62.8,57.1,77,66,57,30.82,29.94,7,0,7,0.20
2013-8-13,79.5,71.0,64.4,62.5,54.5,46.0,80,58,33,30.94,29.97,13,2,13,0.00
2013-8-14,77.0,67.2,58.1,52.2,45.9,36.0,78,50,24,31.00,30.11,5,0,5,0.00
2013-8-15,76.8,68.2,60.1,58.3,49.3,42.0,81,54,31,30.94,30.06,10,1,10,0.00
2013-8-16,79.0,70.3,63.3,56.3,50.4,43.1,72,52,30,30.97,30.08,10,1,10,0.00
2013-8-17,81.0,70.5,60.3,58.4,50.8,42.9,80,53,27,31.00,30.11,12,2,12,0.00
2013-8-18,82.2,72.2,61.2,59.5,53.9,49.6,81,55,33,31.03,30.06,8,1,8,0.00
2013-8-19,86.7,76.4,65.7,63.6,56.9,51.3,77,54,30,30.11,30.00,10,2,10,0.00
2013-8-20,88.9,79.0,69.6,63.1,57.8,50.3,70,51,28,30.08,30.00,10,3,10,0.00
2013-8-21,90.7,80.4,70.9,62.8,58.7,52.2,71,50,28,30.08,30.00,12,3,12,0.00
2013-8-22,89.8,81.1,72.7,71.3,64.7,59.4,77,59,38,30.91,30.00,10,1,10,0.00
2013-8-23,90.0,79.8,71.2,70.1,64.8,58.2,84,63,37,30.91,30.03,7,1,7,0.00
2013-8-24,89.4,80.1,70.9,67.6,63.1,57.8,84,59,36,31.00,30.08,10,2,10,0.00
2013-8-25,91.8,81.6,72.1,64.5,58.1,52.1,69,47,27,30.23,30.14,12,4,12,0.00
2013-8-26,95.5,83.4,72.5,68.5,60.8,54.8,74,49,27,30.17,30.03,12,3,12,0.00
2013-8-27,94.8,83.9,74.1,69.0,57.9,43.4,79,46,18,30.06,29.94,13,4,13,0.00
2013-8-28,96.1,84.6,74.5,62.6,57.9,50.5,65,43,22,30.79,29.94,12,3,12,0.00
2013-8-29,95.7,85.3,74.7,71.5,60.8,49.3,68,46,22,30.85,29.94,10,1,10,0.00
2013-8-30,99.1,88.0,77.4,71.6,62.6,49.5,75,47,19,29.94,29.79,13,2,13,0.00
2013-8-31,98.4,86.9,78.3,68.9,64.6,59.9,68,49,31,30.62,29.73,10,3,10,0.00
2013-9-1,90.0,81.4,73.8,75.0,62.9,50.5,87,57,28,30.74,29.79,12,2,12,0.00
2013-9-2,81.5,74.1,66.7,58.4,51.2,44.7,69,46,29,30.85,29.88,13,3,13,0.00
2013-9-3,79.2,70.1,60.6,54.6,46.4,33.9,73,46,20,30.91,30.00,10,2,10,0.00
2013-9-4,85.6,72.5,58.8,56.6,47.9,33.4,76,46,16,31.00,30.06,10,1,10,0.00
2013-9-5,88.0,75.9,64.2,60.6,52.8,43.6,72,47,22,31.00,30.08,10,1,10,0.00
2013-9-6,89.1,77.9,67.8,63.5,55.1,39.9,75,49,18,30.94,30.00,12,2,12,0.00
2013-9-7,93.9,80.7,68.2,61.2,54.0,47.0,69,42,21,30.03,29.88,10,3,10,0.00
2013-9-8,89.1,80.4,71.4,70.0,64.9,55.5,88,61,40,30.74,29.85,14,5,14,0.79
2013-9-9,95.7,84.1,74.3,69.6,60.5,47.3,81,50,20,29.94,29.85,14,4,14,0.00
2013-9-10,94.5,83.9,74.1,63.9,55.6,47.0,64,41,20,30.06,29.94,15,4,15,0.00
2013-9-11,94.3,83.1,73.0,61.6,55.0,43.1,62,41,18,30.85,30.00,10,2,10,0.00
2013-9-12,83.1,75.2,67.3,68.4,56.4,34.9,85,57,20,30.91,30.03,14,2,14,0.43
2013-9-13,73.4,65.6,58.8,51.4,42.0,26.5,65,45,18,30.97,30.08,10,3,10,0.00
2013-9-14,72.7,63.2,53.1,50.6,41.5,35.1,77,48,26,30.97,30.00,10,3,10,0.00
2013-9-15,79.3,67.8,61.5,62.0,49.1,34.2,82,53,32,30.97,29.94,12,4,12,0.04
2013-9-16,70.3,63.6,59.4,56.9,52.1,46.4,82,67,44,31.09,30.14,12,2,12,0.00
2013-9-17,68.4,62.6,57.0,60.9,55.8,51.6,85,79,72,31.03,30.03,8,1,8,0.00
2013-9-18,87.1,76.7,64.2,67.3,62.5,58.4,92,64,41,30.03,29.88,16,6,16,0.00
2013-9-19,90.3,80.6,71.2,64.9,61.6,54.4,79,55,30,29.91,29.79,15,6,15,0.12
2013-9-20,73.4,68.9,59.2,65.8,55.8,44.0,86,65,37,30.76,29.85,10,2,10,0.04
2013-9-21,69.6,61.0,53.2,49.5,44.3,37.0,79,57,33,30.79,29.88,14,2,14,0.00
2013-9-22,73.2,61.0,49.8,52.1,45.9,39.8,84,61,31,30.82,29.91,9,1,9,0.00
2013-9-23,73.8,63.8,52.9,53.8,47.9,41.3,90,60,32,30.00,29.88,13,2,13,0.00
2013-9-24,77.9,67.0,54.9,59.4,52.6,44.2,88,62,41,30.68,29.79,12,2,12,0.00
2013-9-25,79.5,70.2,61.5,62.2,57.8,53.9,82,66,42,30.76,29.79,8,1,8,0.00
2013-9-26,81.5,71.7,60.8,61.8,56.3,51.7,87,61,39,30.79,29.88,9,2,9,0.00
2013-9-27,81.3,72.9,63.5,62.4,54.5,47.5,82,55,38,30.88,29.94,12,4,12,0.00
2013-9-28,77.7,71.0,61.7,67.8,58.3,49.4,79,65,46,30.85,29.91,20,5,20,0.28
2013-9-29,71.2,61.8,53.1,55.3,46.6,34.4,87,61,26,30.88,29.97,8,1,8,0.00
2013-9-30,76.1,63.6,50.9,59.1,51.2,45.1,91,66,41,30.76,29.85,13,3,13,0.00
2013-10-1,82.2,72.3,64.6,66.5,59.9,54.4,87,67,39,29.97,29.85,14,4,14,0.00
2013-10-2,82.6,73.6,65.7,68.8,61.4,54.8,88,68,39,30.85,29.91,10,2,10,0.00
2013-10-3,83.5,75.2,70.7,65.5,63.2,55.2,79,67,43,29.91,29.76,14,4,14,0.00
2013-10-4,87.4,78.1,70.7,67.6,62.4,53.5,85,61,32,29.91,29.85,17,7,17,0.00
2013-10-5,76.5,66.5,52.2,67.0,57.5,46.5,83,73,62,29.91,29.85,10,4,10,0.08
2013-10-6,55.4,51.2,45.9,46.7,41.1,33.2,83,69,46,29.88,29.79,13,3,12,0.00
2013-10-7,69.6,59.2,51.6,47.6,41.8,34.7,81,56,28,30.91,29.88,8,2,8,0.00
2013-10-8,74.8,63.4,51.4,50.5,41.2,35.2,73,47,24,30.97,30.06,13,4,13,0.00
2013-10-9,71.4,61.5,51.6,51.6,42.9,38.1,87,53,32,30.97,30.06,12,1,12,0.00
2013-10-10,76.1,64.2,51.1,58.2,48.4,43.9,85,60,32,30.94,29.94,12,2,12,0.00
2013-10-11,77.9,66.5,58.8,57.6,52.1,43.3,85,63,30,29.97,29.85,20,6,20,0.00
2013-10-12,72.3,64.3,53.6,59.3,42.0,26.1,76,47,19,30.88,29.88,10,2,10,0.00
2013-10-13,68.0,55.8,45.9,42.4,31.1,18.1,72,43,15,31.18,30.20,12,1,12,0.00
2013-10-14,67.5,58.2,45.5,49.2,36.7,29.6,66,46,27,31.12,29.97,13,4,13,0.00
2013-10-15,68.4,60.2,50.5,63.4,47.0,34.5,89,64,39,30.00,29.85,13,4,13,0.20
2013-10-16,58.1,53.1,47.8,40.4,35.9,34.1,68,52,42,30.03,29.94,7,1,7,0.00
2013-10-17,64.9,55.4,48.2,49.4,39.0,33.0,85,57,32,29.97,29.85,14,2,14,0.00
2013-10-18,57.4,49.2,43.2,39.1,34.2,26.8,77,58,32,30.82,29.88,10,2,10,0.04
2013-10-19,57.9,48.1,38.1,39.5,32.6,26.3,86,58,30,29.97,29.85,14,5,14,0.00
2013-10-20,70.5,57.5,44.1,37.6,33.2,28.0,70,43,22,29.88,29.73,20,6,20,0.00
2013-10-21,58.8,49.6,41.2,36.3,28.5,21.3,60,45,29,30.91,29.85,16,2,16,0.00
2013-10-22,58.5,45.9,39.9,41.9,33.5,27.8,76,62,46,30.82,29.76,17,4,17,0.00
2013-10-23,50.2,42.5,36.1,33.8,27.6,17.1,78,59,29,30.88,30.00,10,2,10,0.00
2013-10-24,47.3,40.0,31.5,33.0,21.2,14.7,74,49,29,31.09,30.08,14,3,14,0.00
2013-10-25,56.3,43.2,30.4,30.6,20.5,14.2,73,44,20,30.44,30.08,13,4,13,0.00
2013-10-26,62.2,49.4,37.4,32.7,22.5,10.5,54,36,16,30.94,30.00,15,4,15,0.00
2013-11-22,37.9,34.1,26.1,30.7,24.9,17.6,84,69,58,31.35,30.32,13,6,13,0.00
2013-11-23,29.7,24.1,16.0,17.6,8.0,0.6,71,51,33,31.50,30.53,13,3,13,0.00
2013-11-24,27.1,19.2,11.8,7.4,2.0,-1.0,63,48,32,31.50,30.35,6,0,6,0.00
2013-11-25,37.2,32.7,26.6,16.7,9.2,3.5,45,37,30,30.35,30.11,0,0,0,0.00
2013-11-26,37.9,30.0,21.4,23.2,11.4,1.4,65,46,31,31.09,30.06,16,2,16,0.00
2013-11-27,31.5,23.5,15.1,7.6,2.0,-1.5,52,40,25,31.15,30.14,14,2,14,0.04
2013-11-28,45.7,32.2,23.2,15.9,10.0,4.0,52,40,28,31.24,30.11,13,3,13,0.00
2013-11-29,40.5,31.3,20.7,20.5,14.6,9.0,71,51,36,31.33,30.29,6,0,6,0.00
2013-11-30,55.0,42.4,33.3,29.5,25.7,19.2,68,53,36,30.29,30.03,0,0,0,0.00
2013-12-1,50.7,40.8,30.0,36.5,26.4,24.2,83,58,37,30.79,29.88,5,0,5,0.00
2013-12-2,50.0,42.6,36.9,35.4,30.0,25.1,73,61,48,30.62,29.61,0,0,0,0.00
2013-12-3,56.5,48.2,39.2,48.3,42.1,32.4,91,79,70,29.64,29.55,0,0,0,0.00
2013-12-4,61.9,49.7,32.2,52.7,40.2,16.9,90,71,48,29.88,29.47,0,0,0,0.00
2013-12-5,32.2,26.1,22.6,17.2,6.0,0.7,54,42,34,31.09,29.88,15,5,15,0.00
2013-12-6,22.5,18.1,12.2,2.8,-2.5,-7.2,47,40,33,31.38,30.29,13,6,13,0.00
2013-12-7,22.5,15.3,7.9,-0.3,-5.8,-10.5,52,38,27,31.53,30.44,13,4,13,0.00
2013-12-8,26.2,22.5,17.6,19.3,10.9,-1.3,77,62,42,31.09,30.00,10,5,10,0.00
2013-12-9,25.0,20.1,12.9,18.8,6.7,-2.7,77,56,44,30.29,30.06,14,5,14,0.00
2013-12-10,34.2,21.7,9.3,9.7,1.8,-6.0,49,42,31,30.26,30.14,18,4,18,0.00
2013-12-11,27.5,20.9,8.2,14.1,-0.5,-15.6,57,40,22,31.33,30.23,17,4,17,0.00
2013-12-12,40.1,24.2,7.5,13.8,-0.4,-16.3,48,34,28,30.62,30.17,15,3,15,0.00
2013-12-13,36.7,31.9,26.2,29.9,19.2,9.3,88,61,37,30.17,29.94,12,4,12,0.16
2013-12-14,32.9,29.6,22.3,30.5,25.5,16.2,92,85,77,30.82,29.88,4,0,4,0.00
2013-12-15,34.2,24.6,17.4,22.9,16.2,11.1,79,70,49,30.82,30.00,7,1,7,0.00
2013-12-16,30.6,25.4,19.8,21.8,18.9,14.6,81,76,67,30.11,30.00,10,3,10,0.00
2013-12-17,41.4,31.3,23.4,30.6,20.0,10.5,85,64,43,30.23,30.11,12,2,12,0.16
2013-12-18,49.3,37.5,23.9,27.0,18.3,9.8,56,46,34,30.20,29.82,7,1,7,0.04
2013-12-19,56.7,50.0,42.8,43.8,36.8,27.5,69,61,50,29.85,29.70,0,0,0,0.00
2013-12-20,54.0,41.3,32.5,47.4,35.4,28.0,83,80,69,30.68,29.67,7,0,7,0.08
2013-12-21,32.5,30.8,29.8,28.4,26.5,25.2,87,84,81,30.65,29.61,10,3,10,0.04
2013-12-22,33.1,29.6,21.4,30.0,24.5,11.8,89,81,66,30.29,29.64,0,0,0,0.00
2013-12-23,21.6,15.2,6.3,12.3,3.3,-7.6,70,59,50,30.59,30.29,0,0,0,0.00
2013-12-24,22.8,13.1,1.9,8.2,-1.7,-11.7,54,51,45,30.59,30.26,0,0,0,0.00
2013-12-25,35.1,29.6,22.8,28.6,21.7,8.6,81,72,54,30.29,30.14,0,0,0,0.00
2013-12-26,45.0,33.7,23.0,29.1,23.5,16.7,80,67,47,30.29,30.14,0,0,0,0.00
2013-12-27,50.2,39.5,29.7,34.7,26.9,24.1,85,62,41,30.29,30.14,6,0,6,0.00
2013-12-28,54.5,43.9,35.1,27.9,24.5,19.0,68,48,30,30.14,29.85,0,0,0,0.00
2013-12-29,41.4,25.7,11.3,24.0,9.0,-9.1,64,49,39,30.29,29.82,13,3,13,0.00
2013-12-30,26.6,16.5,6.3,6.0,-5.1,-13.5,46,37,30,31.12,30.14,12,4,12,0.00
2013-12-31,40.5,28.3,19.6,18.1,11.6,5.4,61,50,36,31.12,30.06,8,1,8,0.00
2014-1-1,28.0,22.4,16.7,17.1,12.2,9.8,75,65,54,30.97,30.08,14,4,14,0.00
2014-1-2,24.3,14.7,3.7,10.0,0.1,-13.1,74,52,43,31.27,30.17,18,5,18,0.00